sensor_id;sensor_type;location;lat;lon;timestamp;P1;durP1;ratioP1;P2;durP2;ratioP2
60239;SDS011;46102;39.012;-7.064;2023-10-13T00:01:44;13.13;;;5.07;;
60239;SDS011;46102;39.012;-7.064;2023-10-13T00:03:47;9.65;;;4.45;;
60239;SDS011;46102;39.012;-7.064;2023-10-13T00:05:48;14.07;;;4.57;;
60239;SDS011;46102;39.012;-7.064;2023-10-13T00:07:52;6.80;;;4.43;;
60239;SDS011;46102;39.012;-7.064;2023-10-13T00:09:54;5.97;;;4.00;;
60239;SDS011;46102;39.012;-7.064;2023-10-13T00:11:56;12.45;;;5.03;;
60239;SDS011;46102;39.012;-7.064;2023-10-13T00:13:57;8.85;;;4.22;;
60239;SDS011;46102;39.012;-7.064;2023-10-13T00:15:58;10.25;;;4.35;;
60239;SDS011;46102;39.012;-7.064;2023-10-13T00:17:59;7.65;;;3.58;;
60239;SDS011;46102;39.012;-7.064;2023-10-13T00:20:00;5.80;;;4.03;;
60239;SDS011;46102;39.012;-7.064;2023-10-13T00:22:01;4.65;;;3.80;;
60239;SDS011;46102;39.012;-7.064;2023-10-13T00:24:09;6.03;;;3.50;;
60239;SDS011;46102;39.012;-7.064;2023-10-13T00:26:14;6.22;;;4.15;;
60239;SDS011;46102;39.012;-7.064;2023-10-13T00:28:21;5.53;;;3.97;;
60239;SDS011;46102;39.012;-7.064;2023-10-13T00:30:25;7.03;;;4.30;;
60239;SDS011;46102;39.012;-7.064;2023-10-13T00:32:35;6.28;;;3.80;;
60239;SDS011;46102;39.012;-7.064;2023-10-13T00:34:39;4.20;;;3.78;;
60239;SDS011;46102;39.012;-7.064;2023-10-13T00:36:40;6.82;;;3.70;;
60239;SDS011;46102;39.012;-7.064;2023-10-13T00:39:00;8.20;;;3.78;;
60239;SDS011;46102;39.012;-7.064;2023-10-13T00:41:01;6.95;;;3.97;;
60239;SDS011;46102;39.012;-7.064;2023-10-13T00:43:18;6.90;;;4.22;;
60239;SDS011;46102;39.012;-7.064;2023-10-13T00:45:21;8.23;;;5.20;;
60239;SDS011;46102;39.012;-7.064;2023-10-13T00:47:23;9.43;;;4.30;;
60239;SDS011;46102;39.012;-7.064;2023-10-13T00:49:36;10.98;;;4.53;;
60239;SDS011;46102;39.012;-7.064;2023-10-13T00:51:40;11.90;;;4.22;;
60239;SDS011;46102;39.012;-7.064;2023-10-13T00:53:47;7.97;;;3.95;;
60239;SDS011;46102;39.012;-7.064;2023-10-13T00:55:48;6.47;;;4.18;;
60239;SDS011;46102;39.012;-7.064;2023-10-13T00:57:52;11.73;;;4.80;;
60239;SDS011;46102;39.012;-7.064;2023-10-13T00:59:57;6.20;;;3.90;;
60239;SDS011;46102;39.012;-7.064;2023-10-13T01:01:59;10.98;;;4.22;;
60239;SDS011;46102;39.012;-7.064;2023-10-13T01:04:21;9.15;;;4.57;;
60239;SDS011;46102;39.012;-7.064;2023-10-13T01:06:28;5.60;;;4.47;;
60239;SDS011;46102;39.012;-7.064;2023-10-13T01:08:33;9.32;;;5.95;;
60239;SDS011;46102;39.012;-7.064;2023-10-13T01:10:38;7.28;;;4.32;;
60239;SDS011;46102;39.012;-7.064;2023-10-13T01:12:42;4.90;;;4.05;;
60239;SDS011;46102;39.012;-7.064;2023-10-13T01:14:43;7.93;;;4.85;;
60239;SDS011;46102;39.012;-7.064;2023-10-13T01:16:46;11.60;;;4.40;;
60239;SDS011;46102;39.012;-7.064;2023-10-13T01:18:52;9.43;;;3.97;;
60239;SDS011;46102;39.012;-7.064;2023-10-13T01:20:54;5.50;;;4.70;;
60239;SDS011;46102;39.012;-7.064;2023-10-13T01:22:59;5.13;;;4.35;;
60239;SDS011;46102;39.012;-7.064;2023-10-13T01:25:01;11.98;;;4.68;;
60239;SDS011;46102;39.012;-7.064;2023-10-13T01:27:10;6.43;;;4.45;;
60239;SDS011;46102;39.012;-7.064;2023-10-13T01:29:20;6.25;;;4.38;;
60239;SDS011;46102;39.012;-7.064;2023-10-13T01:31:26;10.85;;;4.95;;
60239;SDS011;46102;39.012;-7.064;2023-10-13T01:33:30;4.90;;;4.10;;
60239;SDS011;46102;39.012;-7.064;2023-10-13T01:35:32;8.52;;;4.00;;
60239;SDS011;46102;39.012;-7.064;2023-10-13T01:37:42;3.95;;;3.65;;
60239;SDS011;46102;39.012;-7.064;2023-10-13T01:39:42;7.78;;;3.95;;
60239;SDS011;46102;39.012;-7.064;2023-10-13T01:41:47;9.20;;;4.80;;
60239;SDS011;46102;39.012;-7.064;2023-10-13T01:43:55;4.95;;;4.32;;
60239;SDS011;46102;39.012;-7.064;2023-10-13T01:45:57;4.95;;;4.47;;
60239;SDS011;46102;39.012;-7.064;2023-10-13T01:47:58;5.93;;;5.00;;
60239;SDS011;46102;39.012;-7.064;2023-10-13T01:49:59;10.68;;;5.05;;
60239;SDS011;46102;39.012;-7.064;2023-10-13T01:52:15;9.18;;;4.90;;
60239;SDS011;46102;39.012;-7.064;2023-10-13T01:54:16;7.75;;;4.32;;
60239;SDS011;46102;39.012;-7.064;2023-10-13T01:56:19;7.43;;;4.63;;
60239;SDS011;46102;39.012;-7.064;2023-10-13T01:58:23;7.28;;;4.65;;
60239;SDS011;46102;39.012;-7.064;2023-10-13T02:00:26;7.22;;;4.43;;
60239;SDS011;46102;39.012;-7.064;2023-10-13T02:02:31;4.93;;;4.28;;
60239;SDS011;46102;39.012;-7.064;2023-10-13T02:04:32;13.68;;;4.75;;
60239;SDS011;46102;39.012;-7.064;2023-10-13T02:06:34;11.95;;;5.10;;
60239;SDS011;46102;39.012;-7.064;2023-10-13T02:08:36;7.20;;;4.70;;
60239;SDS011;46102;39.012;-7.064;2023-10-13T02:10:41;12.93;;;4.75;;
60239;SDS011;46102;39.012;-7.064;2023-10-13T02:12:43;8.52;;;4.30;;
60239;SDS011;46102;39.012;-7.064;2023-10-13T02:14:45;7.65;;;4.68;;
60239;SDS011;46102;39.012;-7.064;2023-10-13T02:16:46;9.45;;;5.07;;
60239;SDS011;46102;39.012;-7.064;2023-10-13T02:18:47;12.20;;;5.07;;
60239;SDS011;46102;39.012;-7.064;2023-10-13T02:20:53;6.55;;;4.95;;
60239;SDS011;46102;39.012;-7.064;2023-10-13T02:23:04;26.42;;;5.97;;
60239;SDS011;46102;39.012;-7.064;2023-10-13T02:25:10;9.68;;;5.07;;
60239;SDS011;46102;39.012;-7.064;2023-10-13T02:27:19;14.18;;;5.13;;
60239;SDS011;46102;39.012;-7.064;2023-10-13T02:29:23;12.32;;;7.60;;
60239;SDS011;46102;39.012;-7.064;2023-10-13T02:31:28;27.67;;;15.05;;
60239;SDS011;46102;39.012;-7.064;2023-10-13T02:33:29;59.28;;;30.02;;
60239;SDS011;46102;39.012;-7.064;2023-10-13T02:35:30;78.03;;;36.65;;
60239;SDS011;46102;39.012;-7.064;2023-10-13T02:37:41;59.88;;;31.25;;
60239;SDS011;46102;39.012;-7.064;2023-10-13T02:39:54;41.92;;;20.55;;
60239;SDS011;46102;39.012;-7.064;2023-10-13T02:41:58;22.27;;;14.10;;
60239;SDS011;46102;39.012;-7.064;2023-10-13T02:43:58;17.52;;;10.07;;
60239;SDS011;46102;39.012;-7.064;2023-10-13T02:45:59;17.27;;;8.95;;
60239;SDS011;46102;39.012;-7.064;2023-10-13T02:48:00;15.13;;;7.63;;
60239;SDS011;46102;39.012;-7.064;2023-10-13T02:50:13;12.40;;;6.93;;
60239;SDS011;46102;39.012;-7.064;2023-10-13T02:52:18;11.27;;;6.70;;
60239;SDS011;46102;39.012;-7.064;2023-10-13T02:54:20;17.13;;;9.20;;
60239;SDS011;46102;39.012;-7.064;2023-10-13T02:56:21;25.10;;;11.50;;
60239;SDS011;46102;39.012;-7.064;2023-10-13T02:58:22;25.30;;;13.10;;
60239;SDS011;46102;39.012;-7.064;2023-10-13T03:00:23;39.50;;;22.27;;
60239;SDS011;46102;39.012;-7.064;2023-10-13T03:02:24;59.13;;;29.58;;
60239;SDS011;46102;39.012;-7.064;2023-10-13T03:04:29;73.45;;;37.53;;
60239;SDS011;46102;39.012;-7.064;2023-10-13T03:06:37;83.10;;;41.13;;
60239;SDS011;46102;39.012;-7.064;2023-10-13T03:08:43;58.47;;;30.00;;
60239;SDS011;46102;39.012;-7.064;2023-10-13T03:10:44;38.40;;;21.85;;
60239;SDS011;46102;39.012;-7.064;2023-10-13T03:12:50;27.27;;;15.02;;
60239;SDS011;46102;39.012;-7.064;2023-10-13T03:14:51;23.30;;;12.75;;
60239;SDS011;46102;39.012;-7.064;2023-10-13T03:17:13;15.55;;;8.18;;
60239;SDS011;46102;39.012;-7.064;2023-10-13T03:19:17;20.65;;;8.18;;
60239;SDS011;46102;39.012;-7.064;2023-10-13T03:21:23;19.33;;;7.28;;
60239;SDS011;46102;39.012;-7.064;2023-10-13T03:23:30;14.07;;;6.53;;
60239;SDS011;46102;39.012;-7.064;2023-10-13T03:25:45;8.23;;;6.00;;
60239;SDS011;46102;39.012;-7.064;2023-10-13T03:27:52;13.32;;;5.72;;
60239;SDS011;46102;39.012;-7.064;2023-10-13T03:29:52;10.50;;;6.10;;
60239;SDS011;46102;39.012;-7.064;2023-10-13T03:31:56;13.57;;;5.72;;
60239;SDS011;46102;39.012;-7.064;2023-10-13T03:34:07;19.13;;;6.60;;
60239;SDS011;46102;39.012;-7.064;2023-10-13T03:36:13;13.45;;;6.95;;
60239;SDS011;46102;39.012;-7.064;2023-10-13T03:38:34;9.35;;;5.50;;
60239;SDS011;46102;39.012;-7.064;2023-10-13T03:40:36;17.45;;;5.72;;
60239;SDS011;46102;39.012;-7.064;2023-10-13T03:42:38;12.50;;;6.78;;
60239;SDS011;46102;39.012;-7.064;2023-10-13T03:44:40;14.98;;;5.82;;
60239;SDS011;46102;39.012;-7.064;2023-10-13T03:46:45;9.13;;;5.75;;
60239;SDS011;46102;39.012;-7.064;2023-10-13T03:48:48;8.07;;;5.82;;
60239;SDS011;46102;39.012;-7.064;2023-10-13T03:50:53;13.88;;;5.47;;
60239;SDS011;46102;39.012;-7.064;2023-10-13T03:53:03;12.80;;;5.95;;
60239;SDS011;46102;39.012;-7.064;2023-10-13T03:55:06;13.88;;;6.22;;
60239;SDS011;46102;39.012;-7.064;2023-10-13T03:57:07;11.32;;;5.90;;
60239;SDS011;46102;39.012;-7.064;2023-10-13T03:59:11;9.13;;;5.38;;
60239;SDS011;46102;39.012;-7.064;2023-10-13T04:03:17;9.52;;;5.40;;
60239;SDS011;46102;39.012;-7.064;2023-10-13T04:05:18;8.40;;;5.75;;
60239;SDS011;46102;39.012;-7.064;2023-10-13T04:07:36;12.30;;;6.32;;
60239;SDS011;46102;39.012;-7.064;2023-10-13T04:09:39;16.08;;;5.22;;
60239;SDS011;46102;39.012;-7.064;2023-10-13T04:11:40;10.95;;;5.53;;
60239;SDS011;46102;39.012;-7.064;2023-10-13T04:14:01;8.35;;;6.30;;
60239;SDS011;46102;39.012;-7.064;2023-10-13T04:16:39;9.75;;;5.55;;
60239;SDS011;46102;39.012;-7.064;2023-10-13T04:18:52;11.07;;;6.07;;
60239;SDS011;46102;39.012;-7.064;2023-10-13T04:20:53;10.35;;;5.68;;
60239;SDS011;46102;39.012;-7.064;2023-10-13T04:23:04;9.95;;;4.90;;
60239;SDS011;46102;39.012;-7.064;2023-10-13T04:25:19;11.75;;;5.65;;
60239;SDS011;46102;39.012;-7.064;2023-10-13T04:27:52;6.30;;;5.13;;
60239;SDS011;46102;39.012;-7.064;2023-10-13T04:30:13;16.75;;;5.95;;
60239;SDS011;46102;39.012;-7.064;2023-10-13T04:32:24;18.63;;;6.00;;
60239;SDS011;46102;39.012;-7.064;2023-10-13T04:34:38;7.50;;;5.50;;
60239;SDS011;46102;39.012;-7.064;2023-10-13T04:36:40;8.52;;;5.03;;
60239;SDS011;46102;39.012;-7.064;2023-10-13T04:40:57;6.15;;;5.45;;
60239;SDS011;46102;39.012;-7.064;2023-10-13T04:43:02;9.68;;;5.38;;
60239;SDS011;46102;39.012;-7.064;2023-10-13T04:45:26;7.53;;;5.18;;
60239;SDS011;46102;39.012;-7.064;2023-10-13T04:47:32;7.70;;;4.68;;
60239;SDS011;46102;39.012;-7.064;2023-10-13T04:49:42;8.57;;;5.78;;
60239;SDS011;46102;39.012;-7.064;2023-10-13T04:51:42;10.02;;;5.05;;
60239;SDS011;46102;39.012;-7.064;2023-10-13T04:54:12;12.38;;;5.85;;
60239;SDS011;46102;39.012;-7.064;2023-10-13T04:56:26;6.03;;;5.43;;
60239;SDS011;46102;39.012;-7.064;2023-10-13T04:58:41;9.55;;;5.95;;
60239;SDS011;46102;39.012;-7.064;2023-10-13T05:01:02;8.70;;;5.22;;
60239;SDS011;46102;39.012;-7.064;2023-10-13T05:03:22;5.45;;;4.72;;
60239;SDS011;46102;39.012;-7.064;2023-10-13T05:05:53;9.65;;;5.60;;
60239;SDS011;46102;39.012;-7.064;2023-10-13T05:07:54;13.25;;;8.45;;
60239;SDS011;46102;39.012;-7.064;2023-10-13T05:10:13;17.42;;;8.88;;
60239;SDS011;46102;39.012;-7.064;2023-10-13T05:12:33;24.45;;;10.48;;
60239;SDS011;46102;39.012;-7.064;2023-10-13T05:14:52;14.05;;;9.52;;
60239;SDS011;46102;39.012;-7.064;2023-10-13T05:17:11;14.25;;;8.63;;
60239;SDS011;46102;39.012;-7.064;2023-10-13T05:19:31;17.50;;;8.27;;
60239;SDS011;46102;39.012;-7.064;2023-10-13T05:21:50;9.60;;;7.55;;
60239;SDS011;46102;39.012;-7.064;2023-10-13T05:24:09;11.75;;;7.47;;
60239;SDS011;46102;39.012;-7.064;2023-10-13T05:26:29;11.27;;;7.32;;
60239;SDS011;46102;39.012;-7.064;2023-10-13T05:28:48;12.65;;;7.07;;
60239;SDS011;46102;39.012;-7.064;2023-10-13T05:31:08;11.10;;;6.57;;
60239;SDS011;46102;39.012;-7.064;2023-10-13T05:33:27;10.07;;;6.38;;
60239;SDS011;46102;39.012;-7.064;2023-10-13T05:35:46;12.35;;;6.85;;
60239;SDS011;46102;39.012;-7.064;2023-10-13T05:38:06;7.60;;;6.80;;
60239;SDS011;46102;39.012;-7.064;2023-10-13T05:40:25;9.02;;;6.25;;
60239;SDS011;46102;39.012;-7.064;2023-10-13T05:42:44;14.43;;;6.50;;
60239;SDS011;46102;39.012;-7.064;2023-10-13T05:45:04;8.73;;;5.38;;
60239;SDS011;46102;39.012;-7.064;2023-10-13T05:47:23;7.78;;;6.03;;
60239;SDS011;46102;39.012;-7.064;2023-10-13T05:49:42;7.70;;;5.88;;
60239;SDS011;46102;39.012;-7.064;2023-10-13T05:52:05;7.18;;;5.57;;
60239;SDS011;46102;39.012;-7.064;2023-10-13T05:54:19;7.55;;;6.00;;
60239;SDS011;46102;39.012;-7.064;2023-10-13T05:56:22;7.55;;;5.22;;
60239;SDS011;46102;39.012;-7.064;2023-10-13T05:58:41;8.18;;;5.65;;
60239;SDS011;46102;39.012;-7.064;2023-10-13T06:01:01;9.50;;;5.18;;
60239;SDS011;46102;39.012;-7.064;2023-10-13T06:03:20;7.65;;;5.35;;
60239;SDS011;46102;39.012;-7.064;2023-10-13T06:05:39;10.48;;;5.95;;
60239;SDS011;46102;39.012;-7.064;2023-10-13T06:07:59;6.68;;;5.10;;
60239;SDS011;46102;39.012;-7.064;2023-10-13T06:10:18;7.45;;;5.55;;
60239;SDS011;46102;39.012;-7.064;2023-10-13T06:12:37;6.88;;;5.10;;
60239;SDS011;46102;39.012;-7.064;2023-10-13T06:14:57;11.73;;;4.90;;
60239;SDS011;46102;39.012;-7.064;2023-10-13T06:17:16;6.43;;;5.82;;
60239;SDS011;46102;39.012;-7.064;2023-10-13T06:19:35;6.20;;;4.53;;
60239;SDS011;46102;39.012;-7.064;2023-10-13T06:21:54;7.00;;;4.80;;
60239;SDS011;46102;39.012;-7.064;2023-10-13T06:24:14;4.65;;;4.13;;
60239;SDS011;46102;39.012;-7.064;2023-10-13T06:26:33;4.95;;;4.45;;
60239;SDS011;46102;39.012;-7.064;2023-10-13T06:28:52;10.30;;;4.47;;
60239;SDS011;46102;39.012;-7.064;2023-10-13T06:30:55;6.97;;;4.40;;
60239;SDS011;46102;39.012;-7.064;2023-10-13T06:32:57;4.38;;;3.42;;
60239;SDS011;46102;39.012;-7.064;2023-10-13T06:34:57;6.10;;;4.38;;
60239;SDS011;46102;39.012;-7.064;2023-10-13T06:36:58;10.00;;;4.82;;
60239;SDS011;46102;39.012;-7.064;2023-10-13T06:38:59;7.32;;;5.93;;
60239;SDS011;46102;39.012;-7.064;2023-10-13T06:41:18;13.50;;;5.60;;
60239;SDS011;46102;39.012;-7.064;2023-10-13T06:43:32;8.70;;;5.75;;
60239;SDS011;46102;39.012;-7.064;2023-10-13T06:45:35;9.65;;;4.95;;
60239;SDS011;46102;39.012;-7.064;2023-10-13T06:47:36;9.70;;;4.95;;
60239;SDS011;46102;39.012;-7.064;2023-10-13T06:49:42;5.63;;;4.80;;
60239;SDS011;46102;39.012;-7.064;2023-10-13T06:51:44;8.68;;;5.13;;
60239;SDS011;46102;39.012;-7.064;2023-10-13T06:53:47;6.45;;;4.97;;
60239;SDS011;46102;39.012;-7.064;2023-10-13T06:55:48;5.82;;;4.38;;
60239;SDS011;46102;39.012;-7.064;2023-10-13T06:57:55;6.53;;;4.53;;
60239;SDS011;46102;39.012;-7.064;2023-10-13T07:00:00;10.02;;;4.68;;
60239;SDS011;46102;39.012;-7.064;2023-10-13T07:02:08;6.55;;;4.78;;
60239;SDS011;46102;39.012;-7.064;2023-10-13T07:04:20;5.75;;;4.47;;
60239;SDS011;46102;39.012;-7.064;2023-10-13T07:06:22;9.73;;;4.85;;
60239;SDS011;46102;39.012;-7.064;2023-10-13T07:08:23;8.68;;;5.03;;
60239;SDS011;46102;39.012;-7.064;2023-10-13T07:10:24;7.43;;;4.57;;
60239;SDS011;46102;39.012;-7.064;2023-10-13T07:12:30;5.32;;;4.93;;
60239;SDS011;46102;39.012;-7.064;2023-10-13T07:14:33;8.32;;;5.05;;
60239;SDS011;46102;39.012;-7.064;2023-10-13T07:16:34;8.20;;;5.00;;
60239;SDS011;46102;39.012;-7.064;2023-10-13T07:18:36;10.15;;;5.90;;
60239;SDS011;46102;39.012;-7.064;2023-10-13T07:20:41;10.10;;;5.78;;
60239;SDS011;46102;39.012;-7.064;2023-10-13T07:22:45;15.90;;;9.15;;
60239;SDS011;46102;39.012;-7.064;2023-10-13T07:25:03;21.15;;;13.13;;
60239;SDS011;46102;39.012;-7.064;2023-10-13T07:27:06;17.40;;;11.90;;
60239;SDS011;46102;39.012;-7.064;2023-10-13T07:29:08;14.35;;;10.88;;
60239;SDS011;46102;39.012;-7.064;2023-10-13T07:31:13;15.48;;;8.40;;
60239;SDS011;46102;39.012;-7.064;2023-10-13T07:33:16;10.63;;;6.60;;
60239;SDS011;46102;39.012;-7.064;2023-10-13T07:35:20;10.57;;;6.80;;
60239;SDS011;46102;39.012;-7.064;2023-10-13T07:37:24;11.35;;;6.43;;
60239;SDS011;46102;39.012;-7.064;2023-10-13T07:39:29;19.27;;;6.57;;
60239;SDS011;46102;39.012;-7.064;2023-10-13T07:41:34;13.57;;;6.55;;
60239;SDS011;46102;39.012;-7.064;2023-10-13T07:43:36;17.95;;;6.90;;
60239;SDS011;46102;39.012;-7.064;2023-10-13T07:45:37;20.52;;;7.43;;
60239;SDS011;46102;39.012;-7.064;2023-10-13T07:47:40;19.15;;;7.70;;
60239;SDS011;46102;39.012;-7.064;2023-10-13T07:49:42;23.35;;;6.97;;
60239;SDS011;46102;39.012;-7.064;2023-10-13T07:51:43;27.13;;;7.43;;
60239;SDS011;46102;39.012;-7.064;2023-10-13T07:53:49;21.63;;;7.05;;
60239;SDS011;46102;39.012;-7.064;2023-10-13T07:55:51;10.43;;;6.43;;
60239;SDS011;46102;39.012;-7.064;2023-10-13T07:58:02;10.50;;;6.20;;
60239;SDS011;46102;39.012;-7.064;2023-10-13T08:00:08;21.83;;;6.70;;
60239;SDS011;46102;39.012;-7.064;2023-10-13T08:02:14;14.40;;;6.78;;
60239;SDS011;46102;39.012;-7.064;2023-10-13T08:04:35;19.77;;;7.55;;
60239;SDS011;46102;39.012;-7.064;2023-10-13T08:06:38;16.88;;;7.72;;
60239;SDS011;46102;39.012;-7.064;2023-10-13T08:08:43;21.15;;;7.38;;
60239;SDS011;46102;39.012;-7.064;2023-10-13T08:10:44;31.92;;;7.88;;
60239;SDS011;46102;39.012;-7.064;2023-10-13T08:12:45;30.27;;;9.05;;
60239;SDS011;46102;39.012;-7.064;2023-10-13T08:14:46;30.27;;;9.55;;
60239;SDS011;46102;39.012;-7.064;2023-10-13T08:16:47;30.73;;;9.27;;
60239;SDS011;46102;39.012;-7.064;2023-10-13T08:18:55;32.55;;;9.60;;
60239;SDS011;46102;39.012;-7.064;2023-10-13T08:21:02;26.70;;;9.25;;
60239;SDS011;46102;39.012;-7.064;2023-10-13T08:23:04;33.20;;;9.80;;
60239;SDS011;46102;39.012;-7.064;2023-10-13T08:25:13;19.17;;;7.60;;
60239;SDS011;46102;39.012;-7.064;2023-10-13T08:27:46;38.95;;;9.10;;
60239;SDS011;46102;39.012;-7.064;2023-10-13T08:30:05;25.25;;;8.88;;
60239;SDS011;46102;39.012;-7.064;2023-10-13T08:32:25;33.05;;;9.65;;
60239;SDS011;46102;39.012;-7.064;2023-10-13T08:34:27;24.50;;;8.38;;
60239;SDS011;46102;39.012;-7.064;2023-10-13T08:36:30;22.98;;;7.75;;
60239;SDS011;46102;39.012;-7.064;2023-10-13T08:38:31;23.08;;;8.13;;
60239;SDS011;46102;39.012;-7.064;2023-10-13T08:40:44;12.52;;;5.97;;
60239;SDS011;46102;39.012;-7.064;2023-10-13T08:42:56;13.63;;;5.72;;
60239;SDS011;46102;39.012;-7.064;2023-10-13T08:45:06;13.27;;;5.05;;
60239;SDS011;46102;39.012;-7.064;2023-10-13T08:47:20;10.32;;;5.18;;
60239;SDS011;46102;39.012;-7.064;2023-10-13T08:49:25;5.68;;;4.53;;
60239;SDS011;46102;39.012;-7.064;2023-10-13T08:51:31;6.80;;;4.30;;
60239;SDS011;46102;39.012;-7.064;2023-10-13T08:53:49;10.90;;;4.50;;
60239;SDS011;46102;39.012;-7.064;2023-10-13T08:55:59;7.07;;;4.95;;
60239;SDS011;46102;39.012;-7.064;2023-10-13T08:58:20;8.13;;;4.90;;
60239;SDS011;46102;39.012;-7.064;2023-10-13T09:00:25;10.50;;;4.35;;
60239;SDS011;46102;39.012;-7.064;2023-10-13T09:02:44;9.82;;;4.65;;
60239;SDS011;46102;39.012;-7.064;2023-10-13T09:05:14;7.20;;;4.75;;
60239;SDS011;46102;39.012;-7.064;2023-10-13T09:07:43;5.55;;;4.05;;
60239;SDS011;46102;39.012;-7.064;2023-10-13T09:09:49;5.30;;;4.68;;
60239;SDS011;46102;39.012;-7.064;2023-10-13T09:11:53;8.93;;;4.60;;
60239;SDS011;46102;39.012;-7.064;2023-10-13T09:14:14;3.90;;;3.50;;
60239;SDS011;46102;39.012;-7.064;2023-10-13T09:16:34;7.55;;;4.63;;
60239;SDS011;46102;39.012;-7.064;2023-10-13T09:18:41;4.13;;;3.70;;
60239;SDS011;46102;39.012;-7.064;2023-10-13T09:20:48;6.55;;;4.40;;
60239;SDS011;46102;39.012;-7.064;2023-10-13T09:25:08;9.57;;;4.35;;
60239;SDS011;46102;39.012;-7.064;2023-10-13T09:27:14;5.07;;;4.22;;
60239;SDS011;46102;39.012;-7.064;2023-10-13T09:29:15;6.00;;;4.07;;
60239;SDS011;46102;39.012;-7.064;2023-10-13T09:31:21;6.28;;;3.80;;
60239;SDS011;46102;39.012;-7.064;2023-10-13T09:33:27;7.35;;;4.35;;
60239;SDS011;46102;39.012;-7.064;2023-10-13T09:35:33;5.65;;;4.40;;
60239;SDS011;46102;39.012;-7.064;2023-10-13T09:37:37;7.72;;;3.80;;
60239;SDS011;46102;39.012;-7.064;2023-10-13T09:39:38;10.18;;;4.43;;
60239;SDS011;46102;39.012;-7.064;2023-10-13T09:41:44;6.18;;;3.85;;
60239;SDS011;46102;39.012;-7.064;2023-10-13T09:43:48;14.45;;;4.47;;
60239;SDS011;46102;39.012;-7.064;2023-10-13T09:45:53;12.35;;;4.20;;
60239;SDS011;46102;39.012;-7.064;2023-10-13T09:48:09;10.27;;;4.47;;
60239;SDS011;46102;39.012;-7.064;2023-10-13T09:50:16;8.88;;;3.80;;
60239;SDS011;46102;39.012;-7.064;2023-10-13T09:52:24;6.57;;;4.55;;
60239;SDS011;46102;39.012;-7.064;2023-10-13T09:54:35;8.30;;;3.85;;
60239;SDS011;46102;39.012;-7.064;2023-10-13T09:56:45;8.25;;;5.20;;
60239;SDS011;46102;39.012;-7.064;2023-10-13T10:01:00;12.63;;;4.00;;
60239;SDS011;46102;39.012;-7.064;2023-10-13T10:03:09;14.10;;;4.35;;
60239;SDS011;46102;39.012;-7.064;2023-10-13T10:05:29;4.57;;;3.97;;
60239;SDS011;46102;39.012;-7.064;2023-10-13T10:07:34;13.48;;;4.88;;
60239;SDS011;46102;39.012;-7.064;2023-10-13T10:09:35;10.40;;;4.95;;
60239;SDS011;46102;39.012;-7.064;2023-10-13T10:11:55;9.35;;;4.20;;
60239;SDS011;46102;39.012;-7.064;2023-10-13T10:16:04;11.85;;;4.30;;
60239;SDS011;46102;39.012;-7.064;2023-10-13T10:18:21;7.30;;;4.25;;
60239;SDS011;46102;39.012;-7.064;2023-10-13T10:22:40;8.73;;;4.38;;
60239;SDS011;46102;39.012;-7.064;2023-10-13T10:24:57;17.73;;;5.10;;
60239;SDS011;46102;39.012;-7.064;2023-10-13T10:27:02;6.93;;;3.97;;
60239;SDS011;46102;39.012;-7.064;2023-10-13T10:29:10;7.97;;;3.85;;
60239;SDS011;46102;39.012;-7.064;2023-10-13T10:31:14;13.82;;;4.18;;
60239;SDS011;46102;39.012;-7.064;2023-10-13T10:33:17;15.95;;;4.05;;
60239;SDS011;46102;39.012;-7.064;2023-10-13T10:35:22;14.27;;;5.32;;
60239;SDS011;46102;39.012;-7.064;2023-10-13T10:37:30;16.65;;;4.43;;
60239;SDS011;46102;39.012;-7.064;2023-10-13T10:39:35;8.63;;;4.82;;
60239;SDS011;46102;39.012;-7.064;2023-10-13T10:41:50;10.73;;;4.18;;
60239;SDS011;46102;39.012;-7.064;2023-10-13T10:43:53;4.75;;;3.53;;
60239;SDS011;46102;39.012;-7.064;2023-10-13T10:45:54;7.90;;;5.18;;
60239;SDS011;46102;39.012;-7.064;2023-10-13T10:47:59;9.75;;;4.65;;
60239;SDS011;46102;39.012;-7.064;2023-10-13T10:50:24;11.43;;;4.82;;
60239;SDS011;46102;39.012;-7.064;2023-10-13T10:52:34;4.32;;;3.92;;
60239;SDS011;46102;39.012;-7.064;2023-10-13T10:54:39;9.13;;;4.70;;
60239;SDS011;46102;39.012;-7.064;2023-10-13T10:56:44;7.10;;;3.78;;
60239;SDS011;46102;39.012;-7.064;2023-10-13T10:58:54;4.25;;;3.85;;
60239;SDS011;46102;39.012;-7.064;2023-10-13T11:01:04;5.88;;;4.70;;
60239;SDS011;46102;39.012;-7.064;2023-10-13T11:03:19;12.57;;;3.88;;
60239;SDS011;46102;39.012;-7.064;2023-10-13T11:05:20;10.55;;;4.95;;
60239;SDS011;46102;39.012;-7.064;2023-10-13T11:07:22;4.78;;;4.15;;
60239;SDS011;46102;39.012;-7.064;2023-10-13T11:09:26;7.97;;;4.40;;
60239;SDS011;46102;39.012;-7.064;2023-10-13T11:11:37;9.32;;;4.47;;
60239;SDS011;46102;39.012;-7.064;2023-10-13T11:13:44;9.32;;;4.65;;
60239;SDS011;46102;39.012;-7.064;2023-10-13T11:16:05;6.53;;;3.92;;
60239;SDS011;46102;39.012;-7.064;2023-10-13T11:18:08;6.53;;;3.60;;
60239;SDS011;46102;39.012;-7.064;2023-10-13T11:20:16;13.20;;;4.25;;
60239;SDS011;46102;39.012;-7.064;2023-10-13T11:22:19;6.30;;;3.97;;
60239;SDS011;46102;39.012;-7.064;2023-10-13T11:24:40;5.47;;;4.10;;
60239;SDS011;46102;39.012;-7.064;2023-10-13T11:26:42;7.28;;;3.85;;
60239;SDS011;46102;39.012;-7.064;2023-10-13T11:28:50;6.75;;;3.53;;
60239;SDS011;46102;39.012;-7.064;2023-10-13T11:30:51;10.38;;;4.40;;
60239;SDS011;46102;39.012;-7.064;2023-10-13T11:33:01;10.43;;;4.78;;
60239;SDS011;46102;39.012;-7.064;2023-10-13T11:35:07;12.52;;;4.80;;
60239;SDS011;46102;39.012;-7.064;2023-10-13T11:37:20;8.48;;;4.35;;
60239;SDS011;46102;39.012;-7.064;2023-10-13T11:39:38;24.67;;;4.68;;
60239;SDS011;46102;39.012;-7.064;2023-10-13T11:41:42;10.15;;;4.15;;
60239;SDS011;46102;39.012;-7.064;2023-10-13T11:43:52;8.45;;;4.35;;
60239;SDS011;46102;39.012;-7.064;2023-10-13T11:45:53;4.25;;;3.50;;
60239;SDS011;46102;39.012;-7.064;2023-10-13T11:48:13;6.55;;;4.50;;
60239;SDS011;46102;39.012;-7.064;2023-10-13T11:50:15;18.48;;;4.53;;
60239;SDS011;46102;39.012;-7.064;2023-10-13T11:52:32;4.93;;;4.45;;
60239;SDS011;46102;39.012;-7.064;2023-10-13T11:54:32;10.80;;;4.05;;
60239;SDS011;46102;39.012;-7.064;2023-10-13T11:56:34;7.25;;;3.90;;
60239;SDS011;46102;39.012;-7.064;2023-10-13T11:58:35;11.02;;;4.88;;
60239;SDS011;46102;39.012;-7.064;2023-10-13T12:00:37;11.43;;;4.40;;
60239;SDS011;46102;39.012;-7.064;2023-10-13T12:03:08;10.95;;;4.70;;
60239;SDS011;46102;39.012;-7.064;2023-10-13T12:05:27;7.63;;;4.28;;
60239;SDS011;46102;39.012;-7.064;2023-10-13T12:07:37;17.67;;;5.13;;
60239;SDS011;46102;39.012;-7.064;2023-10-13T12:09:51;12.00;;;4.85;;
60239;SDS011;46102;39.012;-7.064;2023-10-13T12:11:56;7.43;;;4.15;;
60239;SDS011;46102;39.012;-7.064;2023-10-13T12:14:00;4.18;;;3.85;;
60239;SDS011;46102;39.012;-7.064;2023-10-13T12:16:11;8.18;;;3.80;;
60239;SDS011;46102;39.012;-7.064;2023-10-13T12:18:13;11.95;;;4.60;;
60239;SDS011;46102;39.012;-7.064;2023-10-13T12:20:15;10.13;;;4.15;;
60239;SDS011;46102;39.012;-7.064;2023-10-13T12:22:25;7.10;;;4.18;;
60239;SDS011;46102;39.012;-7.064;2023-10-13T12:24:28;15.02;;;4.35;;
60239;SDS011;46102;39.012;-7.064;2023-10-13T12:26:35;7.18;;;3.75;;
60239;SDS011;46102;39.012;-7.064;2023-10-13T12:28:38;7.63;;;4.10;;
60239;SDS011;46102;39.012;-7.064;2023-10-13T12:30:41;8.90;;;4.15;;
60239;SDS011;46102;39.012;-7.064;2023-10-13T12:32:54;15.90;;;4.45;;
60239;SDS011;46102;39.012;-7.064;2023-10-13T12:35:06;8.18;;;3.92;;
60239;SDS011;46102;39.012;-7.064;2023-10-13T12:37:07;13.10;;;4.72;;
60239;SDS011;46102;39.012;-7.064;2023-10-13T12:39:28;9.45;;;3.65;;
60239;SDS011;46102;39.012;-7.064;2023-10-13T12:41:47;9.20;;;3.90;;
60239;SDS011;46102;39.012;-7.064;2023-10-13T12:44:06;17.05;;;4.32;;
60239;SDS011;46102;39.012;-7.064;2023-10-13T12:46:26;9.77;;;4.10;;
60239;SDS011;46102;39.012;-7.064;2023-10-13T12:48:45;13.60;;;4.15;;
60239;SDS011;46102;39.012;-7.064;2023-10-13T12:51:16;11.90;;;3.70;;